Time;durP1;ratioP1;P1;durP2;ratioP2;P2;SDS_P1;SDS_P2;PMS_P1;PMS_P2;Temp;Humidity;BMP_temperature;BMP_pressure;BME280_temperature;BME280_humidity;BME280_pressure;Samples;Min_cycle;Max_cycle;Signal;HPM_P1;HPM_P2
2022/12/03 00:01:13;;;;;;;81.70;36.10;;;;;;;0.79;76.36;99812.10;103601;1291;94275;-70
2022/12/03 00:03:42;;;;;;;76.70;37.80;;;;;;;0.77;76.24;99814.75;103630;1291;96516;-68
2022/12/03 00:06:10;;;;;;;82.40;39.00;;;;;;;0.75;76.11;99817.05;103550;1298;111480;-69
2022/12/03 00:08:38;;;;;;;81.60;40.00;;;;;;;0.75;76.28;99818.10;103366;1294;95239;-69
2022/12/03 00:11:06;;;;;;;80.00;38.50;;;;;;;0.75;76.30;99818.09;103468;1291;107824;-68
2022/12/03 00:13:34;;;;;;;74.70;38.30;;;;;;;0.75;76.52;99820.37;103451;1293;96620;-69
2022/12/03 00:16:02;;;;;;;81.70;38.30;;;;;;;0.74;76.15;99819.33;103525;1298;95611;-70
2022/12/03 00:18:30;;;;;;;77.90;36.50;;;;;;;0.74;76.37;99821.96;103575;1289;112644;-67
2022/12/03 00:20:58;;;;;;;70.40;34.30;;;;;;;0.74;76.37;99823.86;103475;1299;96417;-68
2022/12/03 00:23:26;;;;;;;85.80;37.20;;;;;;;0.76;76.40;99829.60;103499;1291;107898;-68
2022/12/03 00:25:54;;;;;;;74.90;35.90;;;;;;;0.77;76.23;99835.01;103364;1295;94367;-69
2022/12/03 00:28:22;;;;;;;75.30;35.70;;;;;;;0.77;76.11;99838.49;103581;1291;96552;-69
2022/12/03 00:30:52;;;;;;;68.60;34.40;;;;;;;0.78;76.47;99844.42;103518;1293;110137;-69
2022/12/03 00:33:21;;;;;;;81.60;36.80;;;;;;;0.78;76.23;99846.86;103395;1285;94326;-69
2022/12/03 00:35:49;;;;;;;72.10;35.40;;;;;;;0.79;76.45;99843.52;103416;1291;108119;-68
2022/12/03 00:38:17;;;;;;;74.50;34.30;;;;;;;0.80;76.39;99840.34;103537;1291;94298;-67
2022/12/03 00:40:45;;;;;;;74.60;35.70;;;;;;;0.80;76.49;99838.25;103422;1294;96609;-67
2022/12/03 00:43:13;;;;;;;71.20;35.90;;;;;;;0.79;76.47;99837.73;103498;1298;110856;-67
2022/12/03 00:45:41;;;;;;;77.20;33.90;;;;;;;0.80;76.62;99836.16;103450;1293;96618;-68
2022/12/03 00:48:09;;;;;;;72.60;33.30;;;;;;;0.82;76.27;99839.09;103545;1291;108033;-68
2022/12/03 00:50:37;;;;;;;78.60;35.60;;;;;;;0.82;76.38;99836.46;103615;1299;96642;-68
2022/12/03 00:53:04;;;;;;;76.10;35.30;;;;;;;0.82;76.49;99831.73;103641;1299;97239;-68
2022/12/03 00:55:32;;;;;;;78.60;35.50;;;;;;;0.83;76.69;99830.85;103430;1298;110009;-69
2022/12/03 00:58:01;;;;;;;77.20;35.40;;;;;;;0.83;76.27;99828.41;103323;1294;94646;-67
2022/12/03 01:00:29;;;;;;;73.70;34.90;;;;;;;0.83;76.73;99827.34;103441;1293;108158;-67
2022/12/03 01:02:56;;;;;;;72.20;35.30;;;;;;;0.84;76.10;99823.67;103298;1294;96687;-67
2022/12/03 01:05:24;;;;;;;72.70;34.00;;;;;;;0.85;76.46;99824.52;103442;1294;94262;-69
2022/12/03 01:07:53;;;;;;;74.80;35.80;;;;;;;0.87;76.42;99826.76;103659;1297;110391;-68
2022/12/03 01:10:22;;;;;;;69.10;34.10;;;;;;;0.88;76.46;99828.30;103574;1291;96624;-70
2022/12/03 01:12:50;;;;;;;71.50;34.10;;;;;;;0.89;76.60;99825.14;103624;1289;108114;-69
2022/12/03 01:15:19;;;;;;;70.10;32.70;;;;;;;0.90;76.39;99822.17;103566;1297;96721;-68
2022/12/03 01:17:47;;;;;;;68.70;33.20;;;;;;;0.90;76.30;99823.90;103650;1279;96562;-68
2022/12/03 01:20:15;;;;;;;74.30;33.20;;;;;;;0.91;76.59;99822.65;103555;1292;109808;-68
2022/12/03 01:22:43;;;;;;;76.20;35.90;;;;;;;0.93;76.46;99818.60;103530;1300;96300;-68
2022/12/03 01:25:11;;;;;;;67.30;32.80;;;;;;;0.94;76.64;99818.23;103416;1299;108036;-68
2022/12/03 01:27:39;;;;;;;72.40;32.30;;;;;;;0.95;76.67;99816.99;103241;1294;94329;-68
2022/12/03 01:30:10;;;;;;;73.50;34.40;;;;;;;0.97;76.38;99824.11;103497;1298;96625;-68
2022/12/03 01:32:38;;;;;;;75.90;33.80;;;;;;;0.98;76.55;99821.66;103641;1295;110475;-69
2022/12/03 01:35:07;;;;;;;69.50;33.70;;;;;;;0.99;76.36;99821.80;103672;1291;97173;-67
2022/12/03 01:37:35;;;;;;;65.90;31.90;;;;;;;0.99;76.47;99821.79;103625;1305;107437;-69
2022/12/03 01:40:04;;;;;;;72.40;34.30;;;;;;;1.00;76.72;99821.08;103597;1295;96514;-68
2022/12/03 01:42:37;;;;;;;69.50;33.20;;;;;;;1.01;76.31;99816.52;103462;1307;95700;-69
2022/12/03 01:45:15;;;;;;;66.50;33.10;;;;;;;1.02;76.42;99812.82;103567;1297;109778;-69
2022/12/03 01:47:43;;;;;;;71.80;34.00;;;;;;;1.02;76.53;99814.04;103397;1295;96729;-68
2022/12/03 01:50:29;;;;;;;67.50;31.30;;;;;;;1.01;76.62;99814.77;103629;1291;108146;-69
2022/12/03 01:53:00;;;;;;;67.70;31.90;;;;;;;1.00;76.25;99814.96;103404;1297;96642;-69
2022/12/03 01:55:29;;;;;;;70.50;33.10;;;;;;;1.00;76.45;99814.27;103507;1291;96516;-68
2022/12/03 01:57:59;;;;;;;73.60;31.40;;;;;;;1.01;76.40;99812.69;103594;1291;110187;-69
2022/12/03 02:00:28;;;;;;;63.80;31.70;;;;;;;1.00;76.42;99814.61;103580;1295;94228;-70
2022/12/03 02:03:00;;;;;;;66.90;30.10;;;;;;;0.99;76.53;99813.23;103302;1298;107475;-70
2022/12/03 02:05:32;;;;;;;72.10;32.00;;;;;;;0.99;76.59;99818.31;103530;1298;94262;-70
2022/12/03 02:08:01;;;;;;;69.90;31.60;;;;;;;0.98;76.62;99818.15;103590;1297;96603;-70
2022/12/03 02:10:33;;;;;;;63.20;29.30;;;;;;;0.98;76.74;99817.79;103579;1298;110086;-73
2022/12/03 02:13:09;;;;;;;68.60;31.40;;;;;;;0.98;76.70;99817.27;103615;1292;96109;-69
2022/12/03 02:15:38;;;;;;;66.40;29.50;;;;;;;0.98;76.58;99820.77;103497;1297;107479;-69
2022/12/03 02:18:08;;;;;;;65.90;31.00;;;;;;;0.98;76.74;99818.50;103767;1297;96716;-70
2022/12/03 02:20:58;;;;;;;73.10;31.10;;;;;;;0.98;76.60;99819.56;103609;1289;96614;-70
2022/12/03 02:23:40;;;;;;;63.40;30.70;;;;;;;0.98;76.58;99819.73;104502;1290;109881;-69
2022/12/03 02:26:08;;;;;;;64.00;28.40;;;;;;;0.99;76.66;99820.93;103552;1295;95592;-69
2022/12/03 02:28:37;;;;;;;70.40;29.90;;;;;;;1.00;76.65;99824.40;103546;1299;108174;-69
2022/12/03 02:31:05;;;;;;;65.20;28.80;;;;;;;0.99;76.45;99822.30;105014;1297;96446;-69
2022/12/03 02:33:34;;;;;;;70.50;30.70;;;;;;;1.00;76.26;99825.10;103676;1288;97028;-70
2022/12/03 02:36:02;;;;;;;67.10;30.60;;;;;;;1.01;76.83;99826.66;103631;1297;110497;-68
2022/12/03 02:38:33;;;;;;;68.40;29.40;;;;;;;1.02;76.62;99823.64;103707;1295;94327;-68
2022/12/03 02:41:08;;;;;;;67.10;29.10;;;;;;;1.02;76.59;99823.48;103595;1289;108634;-69
2022/12/03 02:43:37;;;;;;;63.50;29.60;;;;;;;1.01;76.61;99820.34;103597;1299;94635;-68
2022/12/03 02:46:07;;;;;;;66.70;30.50;;;;;;;1.02;76.47;99817.71;103661;1291;96608;-69
2022/12/03 02:48:38;;;;;;;65.10;29.70;;;;;;;1.02;76.76;99815.25;103638;1291;109114;-69
2022/12/03 02:51:08;;;;;;;68.20;31.30;;;;;;;1.03;76.47;99818.54;103643;1297;94985;-69
2022/12/03 02:53:43;;;;;;;64.80;29.00;;;;;;;1.04;76.40;99820.63;103653;1289;108690;-70
2022/12/03 02:56:15;;;;;;;69.20;29.60;;;;;;;1.05;76.64;99820.97;103619;1292;96534;-69
2022/12/03 02:58:47;;;;;;;66.40;29.80;;;;;;;1.05;76.64;99822.88;103626;1299;96484;-69
2022/12/03 03:01:16;;;;;;;64.60;30.30;;;;;;;1.07;76.66;99821.27;103607;1289;110268;-69
2022/12/03 03:03:46;;;;;;;70.90;31.10;;;;;;;1.07;76.36;99815.52;103643;1299;96515;-70
2022/12/03 03:06:17;;;;;;;68.90;28.90;;;;;;;1.07;76.46;99809.39;103617;1299;107492;-70
2022/12/03 03:08:44;;;;;;;68.20;31.30;;;;;;;1.06;76.49;99809.23;103630;1299;95753;-70
2022/12/03 03:11:13;;;;;;;73.60;31.40;;;;;;;1.05;76.61;99804.53;103617;1295;97271;-69
2022/12/03 03:13:42;;;;;;;66.30;30.90;;;;;;;1.04;76.85;99809.11;103603;1299;110407;-68
2022/12/03 03:16:10;;;;;;;61.30;28.90;;;;;;;1.03;76.76;99807.36;103627;1295;94325;-68
2022/12/03 03:18:39;;;;;;;69.80;32.10;;;;;;;1.02;76.71;99799.70;103583;1298;107535;-69
2022/12/03 03:21:07;;;;;;;67.70;29.30;;;;;;;1.00;76.92;99801.50;103465;1299;96624;-68
2022/12/03 03:23:35;;;;;;;63.50;27.30;;;;;;;0.98;76.49;99801.55;103630;1292;96591;-67
2022/12/03 03:26:08;;;;;;;60.90;28.90;;;;;;;0.98;76.79;99806.45;103416;1294;110394;-68
2022/12/03 03:28:41;;;;;;;59.50;28.60;;;;;;;0.98;76.62;99809.79;103435;1291;96652;-68
2022/12/03 03:31:12;;;;;;;64.30;29.20;;;;;;;0.97;76.71;99809.09;103262;1296;108204;-68
2022/12/03 03:33:42;;;;;;;67.00;29.20;;;;;;;0.96;76.52;99811.73;103290;1294;96482;-69
2022/12/03 03:36:12;;;;;;;66.90;28.20;;;;;;;0.97;76.63;99808.56;103593;1291;96605;-69
2022/12/03 03:38:41;;;;;;;63.00;28.30;;;;;;;0.97;76.76;99808.20;103635;1291;110788;-68
2022/12/03 03:41:11;;;;;;;63.20;28.60;;;;;;;0.98;76.70;99814.31;103699;1291;96610;-69
2022/12/03 03:43:41;;;;;;;63.10;29.30;;;;;;;0.99;76.60;99808.35;103625;1292;108213;-68
2022/12/03 03:46:10;;;;;;;65.90;30.60;;;;;;;0.99;76.86;99807.98;103583;1299;97171;-69
2022/12/03 03:48:41;;;;;;;65.10;30.20;;;;;;;0.99;76.48;99806.95;103630;1291;96579;-69
2022/12/03 03:51:11;;;;;;;64.40;30.60;;;;;;;0.98;76.73;99808.89;103605;1297;110421;-70
2022/12/03 03:53:43;;;;;;;69.00;28.90;;;;;;;0.99;76.49;99811.67;103613;1297;94228;-69
2022/12/03 03:56:12;;;;;;;63.30;28.10;;;;;;;0.99;76.65;99813.41;103649;1289;107499;-69
2022/12/03 03:58:40;;;;;;;67.70;29.10;;;;;;;1.00;76.52;99813.20;103663;1285;96526;-69
2022/12/03 04:01:11;;;;;;;66.60;28.80;;;;;;;1.02;76.64;99814.04;103425;1298;96562;-69
2022/12/03 04:03:40;;;;;;;58.40;28.10;;;;;;;1.02;76.64;99818.21;103590;1291;110383;-70
2022/12/03 04:06:08;;;;;;;67.20;30.20;;;;;;;1.03;76.87;99818.38;103645;1295;94234;-71
2022/12/03 04:08:36;;;;;;;63.70;29.40;;;;;;;1.04;76.73;99819.92;103430;1292;107796;-69
2022/12/03 04:13:51;;;;;;;63.70;28.80;;;;;;;1.04;76.86;99815.39;103668;1288;96541;-69
2022/12/03 04:16:19;;;;;;;65.70;31.10;;;;;;;1.04;76.73;99817.30;103619;1291;109462;-69
2022/12/03 04:18:47;;;;;;;61.70;30.20;;;;;;;1.05;76.93;99815.90;103618;1289;96480;-69
2022/12/03 04:24:07;;;;;;;67.20;28.90;;;;;;;1.05;76.67;99819.92;103634;1297;96577;-70
2022/12/03 04:29:22;;;;;;;66.70;29.30;;;;;;;1.05;76.95;99820.45;103664;1299;110262;-68
2022/12/03 04:37:24;;;;;;;62.20;29.50;;;;;;;1.04;76.82;99819.07;103664;1299;96653;-69
2022/12/03 04:39:53;;;;;;;64.30;29.50;;;;;;;1.04;76.65;99817.66;103623;1299;96435;-68
2022/12/03 04:42:20;;;;;;;62.70;28.90;;;;;;;1.03;76.80;99817.15;103581;1298;110403;-67
2022/12/03 04:44:49;;;;;;;63.00;28.80;;;;;;;1.02;76.90;99821.55;103331;1294;140776;-68
2022/12/03 04:47:19;;;;;;;62.30;28.70;;;;;;;1.00;76.92;99817.22;103589;1291;108145;-69
2022/12/03 04:49:49;;;;;;;63.90;30.80;;;;;;;1.00;76.74;99820.56;103572;1299;94258;-69
2022/12/03 04:52:19;;;;;;;67.50;30.80;;;;;;;0.98;76.86;99818.14;103574;1291;94247;-69
2022/12/03 04:54:47;;;;;;;66.60;30.00;;;;;;;0.96;76.70;99818.89;103613;1297;109610;-69
2022/12/03 04:57:15;;;;;;;58.60;28.10;;;;;;;0.96;76.72;99818.55;103567;1295;94926;-69
2022/12/03 04:59:44;;;;;;;59.80;27.80;;;;;;;0.93;76.71;99814.58;103590;1298;108116;-68
2022/12/03 05:02:11;;;;;;;65.10;29.00;;;;;;;0.91;76.64;99813.05;103594;1289;96548;-69
2022/12/03 05:04:41;;;;;;;66.90;31.40;;;;;;;0.88;76.77;99814.68;103625;1282;96520;-70
2022/12/03 05:07:09;;;;;;;64.50;28.70;;;;;;;0.86;76.76;99811.21;103578;1291;110813;-70
2022/12/03 05:09:37;;;;;;;68.80;31.60;;;;;;;0.84;76.53;99815.11;103561;1289;96542;-70
2022/12/03 05:12:05;;;;;;;64.40;30.90;;;;;;;0.83;76.64;99812.52;103560;1297;107916;-68
2022/12/03 05:14:33;;;;;;;67.30;31.60;;;;;;;0.82;76.78;99819.02;103547;1291;94241;-69
2022/12/03 05:17:01;;;;;;;62.80;29.90;;;;;;;0.80;76.62;99820.64;103583;1291;97691;-71
2022/12/03 05:22:16;;;;;;;70.90;30.70;;;;;;;0.75;76.62;99822.81;103573;1297;94308;-69
2022/12/03 05:24:45;;;;;;;66.50;31.90;;;;;;;0.73;76.62;99824.59;103546;1291;108174;-69
2022/12/03 05:27:13;;;;;;;64.90;32.70;;;;;;;0.71;76.68;99826.38;103537;1292;94319;-68
2022/12/03 05:29:47;;;;;;;;;;;;;;;0.70;76.85;99829.02;103555;1298;95574;-69
2022/12/03 05:32:15;;;;;;;68.10;30.50;;;;;;;0.67;76.74;99830.13;103543;1292;110313;-69
2022/12/03 05:34:43;;;;;;;64.20;29.20;;;;;;;0.67;76.80;99832.73;103555;1294;94247;-69
2022/12/03 05:37:10;;;;;;;65.80;29.80;;;;;;;0.67;76.85;99828.55;103591;1298;108112;-69
2022/12/03 05:39:38;;;;;;;71.90;30.60;;;;;;;0.67;76.81;99829.95;103579;1297;96610;-69
2022/12/03 05:44:56;;;;;;;70.20;31.70;;;;;;;0.68;76.83;99831.15;103639;1291;110482;-68
2022/12/03 05:47:24;;;;;;;67.00;31.50;;;;;;;0.69;76.75;99828.34;103651;1291;96604;-68
2022/12/03 05:49:52;;;;;;;67.60;32.80;;;;;;;0.68;77.00;99829.39;103611;1299;107814;-69
2022/12/03 05:52:20;;;;;;;64.20;30.80;;;;;;;0.70;76.89;99828.85;103538;1305;96566;-69
2022/12/03 05:54:48;;;;;;;70.70;30.70;;;;;;;0.70;76.90;99827.09;103629;1300;96563;-68
2022/12/03 05:57:16;;;;;;;67.60;30.20;;;;;;;0.71;76.81;99824.63;103632;1291;110485;-68
2022/12/03 05:59:44;;;;;;;67.40;29.40;;;;;;;0.72;76.82;99827.23;103608;1298;94237;-68
2022/12/03 06:02:12;;;;;;;63.90;27.70;;;;;;;0.72;76.81;99826.70;103524;1289;107975;-68
2022/12/03 06:04:40;;;;;;;60.00;26.10;;;;;;;0.66;76.78;99826.65;103654;1292;94900;-68
2022/12/03 06:07:08;;;;;;;63.60;30.90;;;;;;;0.61;76.62;99832.86;103438;1299;94300;-69
2022/12/03 06:09:41;;;;;;;65.60;29.30;;;;;;;0.60;76.62;99833.41;103637;1296;109182;-69
2022/12/03 06:12:09;;;;;;;64.50;28.20;;;;;;;0.58;77.03;99833.44;103587;1296;94257;-69
2022/12/03 06:14:36;;;;;;;62.70;29.20;;;;;;;0.55;76.77;99833.33;103601;1289;107793;-67
2022/12/03 06:17:05;;;;;;;70.30;29.30;;;;;;;0.55;76.77;99832.11;103608;1289;95142;-70
2022/12/03 06:19:33;;;;;;;63.10;28.50;;;;;;;0.55;76.97;99835.60;103607;1291;96610;-68
2022/12/03 06:22:01;;;;;;;67.50;30.30;;;;;;;0.55;76.81;99840.13;103587;1289;110714;-68
2022/12/03 06:24:29;;;;;;;62.20;29.50;;;;;;;0.56;76.72;99842.56;103427;1297;96592;-69
2022/12/03 06:26:57;;;;;;;68.00;29.90;;;;;;;0.55;76.66;99840.48;103593;1298;108132;-68
2022/12/03 06:29:25;;;;;;;62.90;28.00;;;;;;;0.54;76.78;99844.34;103374;1297;94402;-69
2022/12/03 06:31:53;;;;;;;67.90;28.80;;;;;;;0.54;76.93;99841.02;103548;1297;96583;-68
2022/12/03 06:34:21;;;;;;;63.90;27.80;;;;;;;0.55;77.02;99836.12;103493;1298;110289;-69
2022/12/03 06:36:49;;;;;;;66.70;29.10;;;;;;;0.57;77.15;99842.36;103547;1298;94280;-68
2022/12/03 06:39:17;;;;;;;66.60;29.50;;;;;;;0.60;76.79;99841.95;103364;1298;108014;-69
2022/12/03 06:41:45;;;;;;;65.00;28.60;;;;;;;0.63;77.03;99843.29;103447;1297;96466;-67
2022/12/03 06:44:14;;;;;;;63.20;29.40;;;;;;;0.65;76.76;99842.38;103427;1298;96647;-66
2022/12/03 06:46:41;;;;;;;66.60;29.70;;;;;;;0.65;76.81;99844.84;103427;1301;110462;-65
2022/12/03 06:49:10;;;;;;;67.60;28.60;;;;;;;0.65;76.80;99845.17;103571;1298;96610;-69
2022/12/03 06:51:38;;;;;;;70.40;31.00;;;;;;;0.66;76.92;99846.72;103545;1297;108131;-69
2022/12/03 06:54:06;;;;;;;59.20;26.30;;;;;;;0.70;76.82;99846.66;103527;1293;96693;-69
2022/12/03 06:56:34;;;;;;;65.20;27.70;;;;;;;0.72;76.72;99851.33;103611;1279;94369;-67
2022/12/03 06:59:12;;;;;;;59.30;27.30;;;;;;;0.70;77.07;99852.40;103519;1299;110364;-69
2022/12/03 07:01:41;;;;;;;66.60;27.20;;;;;;;0.71;77.06;99856.58;103666;1297;94244;-68
2022/12/03 07:04:09;;;;;;;62.80;26.80;;;;;;;0.75;76.88;99856.85;103530;1297;107278;-69
2022/12/03 07:06:37;;;;;;;65.10;27.30;;;;;;;0.79;76.90;99857.66;103572;1305;96439;-69
2022/12/03 07:09:05;;;;;;;65.60;28.50;;;;;;;0.83;77.06;99854.77;103635;1296;96519;-70
2022/12/03 07:11:39;;;;;;;60.30;29.40;;;;;;;0.87;76.96;99853.98;103548;1297;109784;-69
2022/12/03 07:14:10;;;;;;;65.10;28.60;;;;;;;0.91;77.17;99854.25;103650;1297;96602;-69
2022/12/03 07:16:39;;;;;;;61.40;28.00;;;;;;;0.95;77.00;99860.66;103544;1295;107998;-69
2022/12/03 07:19:08;;;;;;;61.40;28.30;;;;;;;0.98;77.14;99855.00;103598;1298;96725;-70
2022/12/03 07:21:37;;;;;;;63.20;29.00;;;;;;;1.01;76.93;99843.92;103620;1290;96519;-69
2022/12/03 07:24:05;;;;;;;63.00;27.80;;;;;;;1.06;76.98;99839.65;103438;1295;109789;-70
2022/12/03 07:26:34;;;;;;;63.00;27.30;;;;;;;1.08;77.08;99839.23;103520;1297;94990;-70
2022/12/03 07:29:02;;;;;;;62.90;27.20;;;;;;;1.10;77.14;99835.36;103601;1299;107448;-69
2022/12/03 07:31:30;;;;;;;65.10;27.60;;;;;;;1.13;77.20;99834.25;103537;1297;94276;-69
2022/12/03 07:33:58;;;;;;;57.80;25.50;;;;;;;1.16;77.07;99828.94;103446;1298;97329;-69
2022/12/03 07:36:26;;;;;;;65.40;28.10;;;;;;;1.17;77.34;99828.21;103506;1297;108724;-68
2022/12/03 07:38:54;;;;;;;62.70;27.60;;;;;;;1.16;77.08;99824.56;103464;1299;96344;-69
2022/12/03 07:41:22;;;;;;;57.40;27.10;;;;;;;1.17;77.00;99822.45;103488;1295;107865;-69
2022/12/03 07:43:50;;;;;;;57.80;26.90;;;;;;;1.20;77.24;99825.89;103483;1296;94254;-69
2022/12/03 07:46:18;;;;;;;58.80;27.30;;;;;;;1.23;76.84;99829.84;103517;1292;96650;-68
2022/12/03 07:48:47;;;;;;;61.30;28.50;;;;;;;1.24;77.15;99835.23;103517;1299;108957;-68
2022/12/03 07:51:14;;;;;;;62.20;28.60;;;;;;;1.25;76.89;99838.52;103526;1292;96141;-68
2022/12/03 07:53:42;;;;;;;59.70;27.00;;;;;;;1.28;76.83;99837.08;103537;1298;108115;-68
2022/12/03 07:56:10;;;;;;;68.90;28.90;;;;;;;1.27;77.07;99834.98;103581;1298;96717;-69
2022/12/03 07:58:38;;;;;;;61.80;27.90;;;;;;;1.29;77.18;99836.88;103567;1298;96518;-66
2022/12/03 08:01:07;;;;;;;64.50;30.80;;;;;;;1.30;77.22;99835.96;103418;1302;110364;-68
2022/12/03 08:03:35;;;;;;;61.20;25.70;;;;;;;1.32;76.94;99841.71;103538;1292;95157;-69
2022/12/03 08:06:03;;;;;;;64.80;27.40;;;;;;;1.27;76.94;99847.58;103594;1298;107978;-69
2022/12/03 08:08:31;;;;;;;59.40;27.10;;;;;;;1.22;76.89;99851.00;103488;1294;96526;-69
2022/12/03 08:11:00;;;;;;;57.00;27.50;;;;;;;1.21;77.13;99849.45;103602;1296;96537;-68
2022/12/03 08:13:29;;;;;;;63.90;28.40;;;;;;;1.25;77.20;99850.77;103603;1297;109936;-70
2022/12/03 08:16:00;;;;;;;57.20;26.30;;;;;;;1.26;76.95;99850.54;103599;1298;94203;-69
2022/12/03 08:18:28;;;;;;;59.00;24.80;;;;;;;1.29;76.91;99851.55;103583;1299;107310;-70
2022/12/03 08:20:56;;;;;;;65.40;31.30;;;;;;;1.32;77.00;99856.89;103548;1295;96478;-71
2022/12/03 08:23:24;;;;;;;63.30;29.00;;;;;;;1.36;77.19;99860.48;103580;1296;96530;-70
2022/12/03 08:25:53;;;;;;;64.30;28.50;;;;;;;1.39;77.29;99865.14;103624;1295;110387;-70
2022/12/03 08:28:24;;;;;;;59.40;28.80;;;;;;;1.42;77.04;99863.33;103583;1299;96506;-69
2022/12/03 08:31:06;;;;;;;62.80;29.80;;;;;;;1.45;77.04;99863.41;103552;1297;107453;-69
2022/12/03 08:33:36;;;;;;;59.00;27.40;;;;;;;1.48;77.25;99863.70;103623;1296;96517;-71
2022/12/03 08:36:14;;;;;;;59.00;28.30;;;;;;;1.52;77.03;99864.34;103648;1297;96622;-70
2022/12/03 08:38:47;;;;;;;62.20;28.80;;;;;;;1.56;77.18;99870.88;103543;1297;108193;-71
2022/12/03 08:42:40;;;;;;;65.40;30.10;;;;;;;1.60;77.20;99873.95;103612;1288;96084;-72
2022/12/03 08:44:28;;;;;;;56.70;26.90;;;;;;;1.63;77.13;99878.03;103531;1291;107300;-69
2022/12/03 08:47:08;;;;;;;55.90;26.60;;;;;;;1.69;77.14;99882.83;103593;1297;96501;-73
2022/12/03 08:49:36;;;;;;;60.20;28.80;;;;;;;1.71;77.09;99881.03;103585;1291;95327;-72
2022/12/03 08:52:22;;;;;;;65.60;32.00;;;;;;;1.74;77.21;99884.29;103562;1297;109143;-72
2022/12/03 08:54:54;;;;;;;67.20;33.60;;;;;;;1.76;77.07;99882.83;103565;1291;96201;-71
2022/12/03 08:57:28;;;;;;;71.60;32.40;;;;;;;1.81;77.20;99880.47;103560;1290;107620;-72
2022/12/03 09:00:19;;;;;;;65.90;31.40;;;;;;;1.84;77.29;99878.29;103558;1297;94239;-71
2022/12/03 09:02:52;;;;;;;65.70;30.90;;;;;;;1.86;77.34;99874.36;103523;1289;94606;-72
2022/12/03 09:05:27;;;;;;;67.70;31.50;;;;;;;1.90;77.32;99871.48;103456;1297;108524;-72
2022/12/03 09:07:55;;;;;;;66.80;32.30;;;;;;;1.96;77.11;99876.44;103483;1297;94532;-73
2022/12/03 09:10:23;;;;;;;65.10;31.10;;;;;;;1.99;77.30;99865.48;103642;1298;105907;-71
2022/12/03 09:12:51;;;;;;;63.80;32.00;;;;;;;2.04;77.44;99867.11;103346;1298;94680;-71
2022/12/03 09:15:18;;;;;;;61.60;31.80;;;;;;;2.09;77.40;99865.77;103401;1291;94834;-70
2022/12/03 09:17:47;;;;;;;62.90;30.90;;;;;;;2.10;77.03;99864.16;103348;1288;109870;-72
2022/12/03 09:20:15;;;;;;;66.10;31.80;;;;;;;2.13;77.24;99865.51;103598;1297;96594;-71
2022/12/03 09:22:43;;;;;;;61.80;30.50;;;;;;;2.18;77.27;99862.93;103647;1281;106213;-70
2022/12/03 09:25:11;;;;;;;63.30;32.70;;;;;;;2.24;77.37;99857.69;103658;1289;96629;-70
2022/12/03 09:27:39;;;;;;;66.90;30.90;;;;;;;2.30;77.23;99852.13;103681;1288;94316;-71
2022/12/03 09:30:07;;;;;;;65.10;31.00;;;;;;;2.36;77.35;99853.89;103652;1289;109506;-70
2022/12/03 09:32:35;;;;;;;58.80;30.70;;;;;;;2.42;77.18;99849.73;103687;1288;96519;-71
2022/12/03 09:35:03;;;;;;;62.70;32.50;;;;;;;2.47;77.28;99844.85;103610;1299;107761;-70
2022/12/03 09:37:32;;;;;;;63.80;30.70;;;;;;;2.53;77.20;99839.08;103664;1298;96616;-70
2022/12/03 09:40:00;;;;;;;64.90;31.50;;;;;;;2.61;77.33;99840.98;103634;1299;96465;-70
2022/12/03 09:42:28;;;;;;;63.80;31.30;;;;;;;2.65;77.11;99841.36;103590;1295;109730;-69
2022/12/03 09:44:56;;;;;;;65.30;30.50;;;;;;;2.67;77.38;99838.68;103451;1292;96516;-71
2022/12/03 09:47:25;;;;;;;59.80;31.90;;;;;;;2.72;77.33;99836.65;103616;1290;107500;-69
2022/12/03 09:49:52;;;;;;;58.70;29.60;;;;;;;2.78;77.23;99834.55;103617;1291;96513;-69
2022/12/03 09:52:30;;;;;;;64.30;32.20;;;;;;;2.83;77.34;99839.48;103460;1281;96610;-69
2022/12/03 09:55:06;;;;;;;62.40;30.10;;;;;;;2.90;77.31;99832.63;103587;1298;110301;-69
2022/12/03 09:57:34;;;;;;;60.90;30.70;;;;;;;2.96;77.47;99826.66;103439;1292;97231;-69
2022/12/03 10:00:14;;;;;;;63.80;31.20;;;;;;;3.02;77.23;99831.95;104212;1291;108005;-70
2022/12/03 10:02:42;;;;;;;65.00;29.80;;;;;;;3.04;77.35;99828.38;103678;1291;94897;-70
2022/12/03 10:05:11;;;;;;;63.40;33.70;;;;;;;3.08;77.22;99828.06;105047;1299;94127;-70
2022/12/03 10:07:39;;;;;;;63.20;30.00;;;;;;;3.14;77.13;99830.70;105204;1292;108984;-69
2022/12/03 10:10:20;;;;;;;63.10;32.40;;;;;;;3.23;77.29;99835.52;103902;1302;96619;-70
2022/12/03 10:12:52;;;;;;;65.80;31.40;;;;;;;3.31;77.28;99835.98;103431;1298;108130;-71
2022/12/03 10:15:22;;;;;;;61.50;32.60;;;;;;;3.39;77.22;99838.89;103576;1298;96686;-70
2022/12/03 10:17:53;;;;;;;61.80;31.80;;;;;;;3.46;77.45;99842.21;103536;1298;96517;-68
2022/12/03 10:20:25;;;;;;;63.80;33.20;;;;;;;3.51;77.37;99838.71;103496;1291;110382;-68
2022/12/03 10:22:53;;;;;;;66.30;32.90;;;;;;;3.56;77.16;99836.08;103490;1297;96533;-69
2022/12/03 10:25:21;;;;;;;60.30;31.20;;;;;;;3.61;77.17;99835.95;103574;1298;107938;-70
2022/12/03 10:28:02;;;;;;;68.40;34.70;;;;;;;3.65;77.22;99840.91;103572;1282;94331;-71
2022/12/03 10:30:30;;;;;;;65.30;32.00;;;;;;;3.69;77.25;99840.95;103549;1291;96623;-70
2022/12/03 10:33:13;;;;;;;62.90;31.40;;;;;;;3.74;77.24;99837.97;103643;1297;110209;-69
2022/12/03 10:35:46;;;;;;;68.90;32.10;;;;;;;3.82;77.35;99837.20;103558;1297;96537;-70
2022/12/03 10:38:22;;;;;;;63.60;31.60;;;;;;;3.89;77.23;99832.96;103577;1299;107849;-69
2022/12/03 10:40:50;;;;;;;65.70;32.90;;;;;;;3.95;77.26;99832.23;103526;1296;96594;-71
2022/12/03 10:43:18;;;;;;;66.60;33.80;;;;;;;4.00;77.34;99830.81;103638;1299;96553;-70
2022/12/03 10:45:48;;;;;;;63.20;33.10;;;;;;;4.05;77.21;99835.77;103541;1290;109874;-70
2022/12/03 10:48:26;;;;;;;62.20;31.10;;;;;;;4.07;77.18;99831.48;103577;1296;94959;-69
2022/12/03 10:51:09;;;;;;;67.50;35.10;;;;;;;4.09;77.26;99827.36;103559;1299;106771;-69
2022/12/03 10:53:39;;;;;;;65.40;33.60;;;;;;;4.17;77.29;99829.21;103568;1299;98144;-69
2022/12/03 10:56:16;;;;;;;66.20;31.10;;;;;;;4.28;77.26;99822.52;103367;1301;96604;-69
2022/12/03 10:58:44;;;;;;;66.80;31.90;;;;;;;4.42;77.50;99817.45;103578;1292;110427;-70
2022/12/03 11:01:16;;;;;;;61.70;31.40;;;;;;;4.57;77.41;99814.61;103388;1295;96626;-70
2022/12/03 11:03:46;;;;;;;64.70;32.40;;;;;;;4.72;77.36;99809.55;103615;1298;107537;-69
2022/12/03 11:06:17;;;;;;;61.70;31.80;;;;;;;4.85;77.24;99803.63;103580;1298;96507;-69
2022/12/03 11:08:48;;;;;;;67.20;33.70;;;;;;;4.96;77.29;99802.00;103599;1297;96516;-70
2022/12/03 11:11:27;;;;;;;62.60;32.70;;;;;;;5.07;77.26;99802.08;103501;1291;110570;-71
2022/12/03 11:14:01;;;;;;;65.00;32.90;;;;;;;5.18;77.36;99799.91;103591;1289;96504;-70
2022/12/03 11:16:38;;;;;;;;;;;;;;;5.26;77.07;99797.67;103565;1288;106644;-70
2022/12/03 11:19:12;;;;;;;62.00;32.40;;;;;;;5.31;77.06;99801.36;103626;1291;96558;-69
2022/12/03 11:22:05;;;;;;;64.30;32.30;;;;;;;5.41;77.33;99799.57;103596;1296;96548;-68
2022/12/03 11:24:35;;;;;;;62.80;34.10;;;;;;;5.48;76.99;99800.17;103582;1291;110243;-68
2022/12/03 11:27:03;;;;;;;63.50;33.00;;;;;;;5.57;77.08;99797.88;103657;1298;96554;-70
2022/12/03 11:29:55;;;;;;;65.20;32.30;;;;;;;5.67;77.13;99796.44;103543;1299;108097;-69
2022/12/03 11:32:41;;;;;;;65.90;34.80;;;;;;;5.75;77.00;99794.67;103627;1305;96623;-68
2022/12/03 11:35:14;;;;;;;66.90;33.80;;;;;;;5.87;77.01;99798.44;103559;1291;95959;-68
2022/12/03 11:37:42;;;;;;;63.70;33.60;;;;;;;5.94;76.89;99795.33;103540;1291;109570;-69
2022/12/03 11:40:17;;;;;;;67.50;36.00;;;;;;;6.02;76.91;99796.42;103575;1296;96488;-69
2022/12/03 11:42:47;;;;;;;68.00;36.50;;;;;;;6.11;77.00;99797.98;103514;1299;108012;-69
2022/12/03 11:45:29;;;;;;;73.50;37.50;;;;;;;6.19;76.92;99797.11;103696;1288;96481;-68
2022/12/03 11:47:57;;;;;;;72.50;38.10;;;;;;;6.26;76.81;99792.79;103597;1299;96515;-68